createdAt,value
2018-09-30T00:00:23.018Z,8.58
2018-09-30T00:01:22.509Z,8.52
2018-09-30T00:02:22.499Z,8.46
2018-09-30T00:03:23.013Z,8.6
2018-09-30T00:04:22.739Z,8.51
2018-09-30T00:05:22.736Z,8.51
2018-09-30T00:06:22.723Z,8.51
2018-09-30T00:07:22.727Z,8.51
2018-09-30T00:08:22.716Z,8.51
2018-09-30T00:09:22.706Z,8.38
2018-09-30T00:10:22.961Z,8.38
2018-09-30T00:11:22.702Z,8.46
2018-09-30T00:12:22.959Z,8.41
2018-09-30T00:13:22.951Z,8.38
2018-09-30T00:14:22.944Z,8.44
2018-09-30T00:15:22.664Z,8.38
2018-09-30T00:16:22.926Z,8.37
2018-09-30T00:17:22.655Z,8.3
2018-09-30T00:18:24.511Z,8.38
2018-09-30T00:19:22.726Z,8.38
2018-09-30T00:20:22.916Z,8.37
2018-09-30T00:21:22.381Z,8.28
2018-09-30T00:22:22.635Z,8.31
2018-09-30T00:23:22.627Z,8.31
2018-09-30T00:24:22.356Z,8.26
2018-09-30T00:25:22.619Z,8.2
2018-09-30T00:26:22.603Z,8.27
2018-09-30T00:27:22.598Z,8.1
2018-09-30T00:28:22.343Z,8.16
2018-09-30T00:29:22.585Z,8.2
2018-09-30T00:30:22.841Z,8.06
2018-09-30T00:31:22.856Z,8.18
2018-09-30T00:32:22.823Z,8.15
2018-09-30T00:33:22.821Z,8.16
2018-09-30T00:34:22.803Z,8.19
2018-09-30T00:35:22.555Z,8.13
2018-09-30T00:36:22.704Z,8.16
2018-09-30T00:37:22.537Z,8.16
2018-09-30T00:38:22.531Z,8.18
2018-09-30T00:39:22.779Z,8.23
2018-09-30T00:40:22.511Z,8.23
2018-09-30T00:41:22.507Z,8.05
2018-09-30T00:42:22.762Z,8.18
2018-09-30T00:43:22.758Z,8.12
2018-09-30T00:44:22.485Z,8.2
2018-09-30T00:45:22.225Z,8.13
2018-09-30T00:46:22.734Z,8.2
2018-09-30T00:47:22.499Z,8.27
2018-09-30T00:48:24.595Z,8.15
2018-09-30T00:49:22.462Z,8.15
2018-09-30T00:50:22.705Z,8.15
2018-09-30T00:51:22.711Z,8.15
2018-09-30T00:52:22.446Z,8.19
2018-09-30T00:53:22.446Z,8.16
2018-09-30T00:54:22.684Z,8.09
2018-09-30T00:55:22.441Z,8.06
2018-09-30T00:56:22.429Z,8.03
2018-09-30T00:57:22.458Z,8.09
2018-09-30T00:58:22.418Z,8.03
2018-09-30T00:59:22.153Z,7.94
2018-09-30T01:00:22.395Z,8.06
2018-09-30T01:01:22.655Z,8.03
2018-09-30T01:02:22.628Z,8.03
2018-09-30T01:03:22.620Z,7.95
2018-09-30T01:04:22.620Z,8.01
2018-09-30T01:05:22.611Z,8.05
2018-09-30T01:06:22.608Z,7.95
2018-09-30T01:07:22.347Z,7.97
2018-09-30T01:08:22.349Z,7.95
2018-09-30T01:09:22.679Z,7.9
2018-09-30T01:10:22.072Z,7.91
2018-09-30T01:11:22.336Z,7.95
2018-09-30T01:12:22.565Z,7.85
2018-09-30T01:13:22.560Z,7.82
2018-09-30T01:14:22.308Z,7.91
2018-09-30T01:15:22.305Z,7.95
2018-09-30T01:16:22.312Z,7.87
2018-09-30T01:17:22.299Z,7.93
2018-09-30T01:18:22.538Z,7.91
2018-09-30T01:19:22.525Z,7.91
2018-09-30T01:20:22.037Z,7.88
2018-09-30T01:21:22.508Z,7.93
2018-09-30T01:22:22.245Z,7.87
2018-09-30T01:23:22.504Z,7.88
2018-09-30T01:24:22.492Z,7.95
2018-09-30T01:25:22.220Z,7.91
2018-09-30T01:26:22.221Z,7.83
2018-09-30T01:27:22.211Z,7.79
2018-09-30T01:28:22.464Z,7.95
2018-09-30T01:29:22.467Z,7.83
2018-09-30T01:30:22.202Z,7.91
2018-09-30T01:31:22.493Z,7.94
2018-09-30T01:32:22.195Z,7.93
2018-09-30T01:33:22.435Z,7.94
2018-09-30T01:34:22.173Z,7.94
2018-09-30T01:35:22.472Z,7.91
2018-09-30T01:36:22.416Z,7.93
2018-09-30T01:37:22.410Z,7.8
2018-09-30T01:38:22.145Z,7.72
2018-09-30T01:39:22.390Z,7.72
2018-09-30T01:40:22.143Z,7.76
2018-09-30T01:41:22.372Z,7.85
2018-09-30T01:42:22.134Z,7.82
2018-09-30T01:43:22.371Z,7.83
2018-09-30T01:44:22.385Z,7.85
2018-09-30T01:45:22.374Z,7.87
2018-09-30T01:46:22.365Z,7.87
2018-09-30T01:47:22.085Z,7.88
2018-09-30T01:48:25.591Z,7.83
2018-09-30T01:49:22.345Z,7.8
2018-09-30T01:50:22.329Z,7.7
2018-09-30T01:51:22.311Z,7.56
2018-09-30T01:52:22.048Z,7.58
2018-09-30T01:53:22.055Z,7.61
2018-09-30T01:54:22.290Z,7.56
2018-09-30T01:55:22.286Z,7.53
2018-09-30T01:56:22.013Z,7.54
2018-09-30T01:57:22.027Z,7.58
2018-09-30T01:58:22.279Z,7.48
2018-09-30T01:59:22.008Z,7.48
2018-09-30T02:00:21.992Z,7.5
2018-09-30T02:01:21.990Z,7.45
2018-09-30T02:02:22.250Z,7.4
2018-09-30T02:03:22.251Z,7.39
2018-09-30T02:04:21.963Z,7.39
2018-09-30T02:05:22.241Z,7.39
2018-09-30T02:06:22.205Z,7.38
2018-09-30T02:07:22.201Z,7.39
2018-09-30T02:08:22.199Z,7.39
2018-09-30T02:09:21.934Z,7.39
2018-09-30T02:10:21.678Z,7.36
2018-09-30T02:11:22.177Z,7.38
2018-09-30T02:12:21.911Z,7.4
2018-09-30T02:13:21.908Z,7.39
2018-09-30T02:14:22.162Z,7.35
2018-09-30T02:15:22.156Z,7.32
2018-09-30T02:16:22.153Z,7.33
2018-09-30T02:17:21.909Z,7.32
2018-09-30T02:18:22.123Z,7.33
2018-09-30T02:19:23.500Z,7.32
2018-09-30T02:20:22.120Z,7.31
2018-09-30T02:21:21.614Z,7.31
2018-09-30T02:22:21.849Z,7.33
2018-09-30T02:23:21.607Z,7.35
2018-09-30T02:24:22.479Z,7.36
2018-09-30T02:25:21.830Z,7.32
2018-09-30T02:26:22.072Z,7.33
2018-09-30T02:27:22.066Z,7.43
2018-09-30T02:28:22.104Z,7.43
2018-09-30T02:29:21.835Z,7.42
2018-09-30T02:30:22.049Z,7.38
2018-09-30T02:31:22.042Z,7.32
2018-09-30T02:32:22.050Z,7.31
2018-09-30T02:33:22.026Z,7.29
2018-09-30T02:34:22.031Z,7.28
2018-09-30T02:35:21.755Z,7.17
2018-09-30T02:36:22.024Z,7.18
2018-09-30T02:37:21.750Z,7.14
2018-09-30T02:38:21.754Z,7.23
2018-09-30T02:39:21.990Z,7.31
2018-09-30T02:40:21.722Z,7.31
2018-09-30T02:41:21.771Z,7.38
2018-09-30T02:42:21.769Z,7.39
2018-09-30T02:43:21.970Z,7.38
2018-09-30T02:44:21.758Z,7.42
2018-09-30T02:45:21.958Z,7.51
2018-09-30T02:46:21.687Z,7.47
2018-09-30T02:47:21.922Z,7.38
2018-09-30T02:48:21.935Z,7.43
2018-09-30T02:49:23.563Z,7.57
2018-09-30T02:50:21.676Z,7.45
2018-09-30T02:51:21.394Z,7.57
2018-09-30T02:52:21.659Z,7.54
2018-09-30T02:53:21.899Z,7.54
2018-09-30T02:54:21.631Z,7.47
2018-09-30T02:55:21.893Z,7.53
2018-09-30T02:56:21.870Z,7.51
2018-09-30T02:57:21.859Z,7.45
2018-09-30T02:58:21.853Z,7.48
2018-09-30T02:59:21.595Z,7.48
2018-09-30T03:00:21.854Z,7.48
2018-09-30T03:01:21.832Z,7.38
2018-09-30T03:02:21.591Z,7.42
2018-09-30T03:03:21.814Z,7.5
2018-09-30T03:04:21.564Z,7.5
2018-09-30T03:05:21.801Z,7.5
2018-09-30T03:06:21.274Z,7.42
2018-09-30T03:07:21.550Z,7.48
2018-09-30T03:08:21.520Z,7.5
2018-09-30T03:09:21.527Z,7.48
2018-09-30T03:10:21.508Z,7.42
2018-09-30T03:11:21.770Z,7.43
2018-09-30T03:12:21.497Z,7.43
2018-09-30T03:13:21.522Z,7.39
2018-09-30T03:14:21.793Z,7.4
2018-09-30T03:15:21.481Z,7.39
2018-09-30T03:16:21.721Z,7.4
2018-09-30T03:17:21.461Z,7.33
2018-09-30T03:18:21.449Z,7.39
2018-09-30T03:19:22.267Z,7.35
2018-09-30T03:20:21.698Z,7.21
2018-09-30T03:21:21.180Z,7.29
2018-09-30T03:22:21.434Z,7.32
2018-09-30T03:23:21.416Z,7.29
2018-09-30T03:24:21.674Z,7.2
2018-09-30T03:25:21.404Z,7.24
2018-09-30T03:26:21.411Z,7.21
2018-09-30T03:27:21.644Z,7.21
2018-09-30T03:28:21.397Z,7.2
2018-09-30T03:29:21.637Z,7.2
2018-09-30T03:30:21.646Z,7.11
2018-09-30T03:31:21.628Z,7.15
2018-09-30T03:32:21.101Z,7.13
2018-09-30T03:33:21.361Z,7.1
2018-09-30T03:34:21.087Z,7.13
2018-09-30T03:35:21.588Z,7.14
2018-09-30T03:36:21.316Z,7.13
2018-09-30T03:37:21.321Z,7.13
2018-09-30T03:38:21.321Z,7.15
2018-09-30T03:39:21.625Z,7.15
2018-09-30T03:40:21.037Z,7.15
2018-09-30T03:41:21.318Z,7.13
2018-09-30T03:42:21.044Z,7.1
2018-09-30T03:43:21.018Z,7.13
2018-09-30T03:44:21.280Z,7.15
2018-09-30T03:45:21.287Z,7.14
2018-09-30T03:46:21.309Z,7.15
2018-09-30T03:47:21.280Z,7.31
2018-09-30T03:48:21.500Z,7.25
2018-09-30T03:49:21.497Z,7.24
2018-09-30T03:50:21.079Z,7.2
2018-09-30T03:51:21.224Z,7.31
2018-09-30T03:52:21.303Z,7.2
2018-09-30T03:53:21.206Z,7.21
2018-09-30T03:54:21.458Z,7.2
2018-09-30T03:55:21.535Z,7.24
2018-09-30T03:56:20.981Z,7.29
2018-09-30T03:57:21.179Z,7.24
2018-09-30T03:58:21.203Z,7.2
2018-09-30T03:59:21.220Z,7.21
2018-09-30T04:00:21.255Z,7.13
2018-09-30T04:01:21.413Z,7.15
2018-09-30T04:02:20.938Z,7.07
2018-09-30T04:03:21.410Z,7.03
2018-09-30T04:04:21.382Z,6.95
2018-09-30T04:05:21.384Z,6.95
2018-09-30T04:06:21.376Z,6.93
2018-09-30T04:07:21.357Z,6.95
2018-09-30T04:08:21.349Z,6.89
2018-09-30T04:09:21.395Z,6.85
2018-09-30T04:10:21.084Z,6.82
2018-09-30T04:11:21.338Z,6.89
2018-09-30T04:12:21.339Z,6.89
2018-09-30T04:13:21.316Z,7.05
2018-09-30T04:14:21.063Z,6.99
2018-09-30T04:15:21.304Z,7.02
2018-09-30T04:16:20.791Z,7.06
2018-09-30T04:17:21.437Z,7.11
2018-09-30T04:18:21.287Z,7.17
2018-09-30T04:19:21.042Z,7.18
2018-09-30T04:20:21.821Z,7.24
2018-09-30T04:21:21.250Z,7.29
2018-09-30T04:22:21.010Z,7.33
2018-09-30T04:23:20.993Z,7.28
2018-09-30T04:24:21.243Z,7.35
2018-09-30T04:25:21.065Z,7.29
2018-09-30T04:26:20.714Z,7.25
2018-09-30T04:27:20.973Z,7.32
2018-09-30T04:28:20.957Z,7.25
2018-09-30T04:29:20.683Z,7.31
2018-09-30T04:30:21.014Z,7.29
2018-09-30T04:31:20.943Z,7.36
2018-09-30T04:32:21.169Z,7.35
2018-09-30T04:33:21.161Z,7.32
2018-09-30T04:34:21.178Z,7.28
2018-09-30T04:35:20.952Z,7.25
2018-09-30T04:36:20.631Z,7.28
2018-09-30T04:37:21.149Z,7.31
2018-09-30T04:38:20.871Z,7.18
2018-09-30T04:39:20.871Z,7.15
2018-09-30T04:40:20.866Z,7.18
2018-09-30T04:41:20.880Z,7.07
2018-09-30T04:42:21.105Z,7.17
2018-09-30T04:43:20.835Z,7.11
2018-09-30T04:44:20.573Z,7.14
2018-09-30T04:45:21.121Z,7.07
2018-09-30T04:46:20.574Z,7.11
2018-09-30T04:47:20.555Z,7.03
2018-09-30T04:48:20.884Z,6.99
2018-09-30T04:49:20.557Z,7.07
2018-09-30T04:50:20.832Z,7.02
2018-09-30T04:51:20.534Z,7.03
2018-09-30T04:52:21.051Z,6.96
2018-09-30T04:53:21.024Z,7.07
2018-09-30T04:54:20.913Z,7.07
2018-09-30T04:55:20.777Z,7.02
2018-09-30T04:56:20.754Z,6.99
2018-09-30T04:57:20.481Z,7.02
2018-09-30T04:58:20.990Z,7.07
2018-09-30T04:59:20.799Z,7.06
2018-09-30T05:00:20.854Z,7.07
2018-09-30T05:01:20.963Z,7.06
2018-09-30T05:02:20.732Z,7.05
2018-09-30T05:03:21.117Z,7.03
2018-09-30T05:04:20.430Z,7.05
2018-09-30T05:05:20.708Z,6.85
2018-09-30T05:06:20.689Z,6.92
2018-09-30T05:07:20.669Z,6.92
2018-09-30T05:08:20.657Z,6.81
2018-09-30T05:09:20.649Z,6.79
2018-09-30T05:10:20.426Z,6.72
2018-09-30T05:11:20.375Z,6.82
2018-09-30T05:12:20.374Z,6.75
2018-09-30T05:13:20.366Z,6.72
2018-09-30T05:14:20.867Z,6.72
2018-09-30T05:15:20.938Z,6.69
2018-09-30T05:16:21.046Z,6.84
2018-09-30T05:17:20.586Z,6.87
2018-09-30T05:18:20.595Z,6.84
2018-09-30T05:19:20.841Z,6.75
2018-09-30T05:20:20.844Z,6.72
2018-09-30T05:21:20.300Z,6.77
2018-09-30T05:22:20.553Z,6.74
2018-09-30T05:23:20.547Z,6.79
2018-09-30T05:24:20.556Z,6.88
2018-09-30T05:25:20.594Z,6.82
2018-09-30T05:26:20.553Z,6.93
2018-09-30T05:27:20.771Z,6.87
2018-09-30T05:28:20.267Z,6.89
2018-09-30T05:29:20.771Z,6.89
2018-09-30T05:30:20.296Z,6.87
2018-09-30T05:31:21.046Z,6.78
2018-09-30T05:32:20.512Z,6.78
2018-09-30T05:33:20.465Z,6.87
2018-09-30T05:34:20.753Z,6.81
2018-09-30T05:35:20.465Z,6.92
2018-09-30T05:36:20.446Z,6.93
2018-09-30T05:37:21.050Z,6.89
2018-09-30T05:38:20.433Z,6.95
2018-09-30T05:39:20.679Z,6.89
2018-09-30T05:40:20.694Z,6.92
2018-09-30T05:41:20.154Z,6.87
2018-09-30T05:42:20.405Z,6.89
2018-09-30T05:43:20.393Z,6.89
2018-09-30T05:44:20.395Z,6.88
2018-09-30T05:45:20.439Z,6.87
2018-09-30T05:46:20.380Z,6.89
2018-09-30T05:47:20.114Z,6.88
2018-09-30T05:48:20.351Z,6.85
2018-09-30T05:49:20.813Z,6.81
2018-09-30T05:50:20.651Z,6.87
2018-09-30T05:51:22.208Z,6.85
2018-09-30T05:52:20.333Z,6.84
2018-09-30T05:53:20.568Z,6.85
2018-09-30T05:54:20.313Z,6.74
2018-09-30T05:55:20.647Z,6.87
2018-09-30T05:56:20.293Z,6.85
2018-09-30T05:57:20.287Z,6.77
2018-09-30T05:58:20.297Z,6.84
2018-09-30T05:59:20.016Z,6.88
2018-09-30T06:00:20.293Z,6.87
2018-09-30T06:01:20.533Z,6.74
2018-09-30T06:02:20.264Z,6.88
2018-09-30T06:03:20.246Z,6.87
2018-09-30T06:04:20.265Z,6.81
2018-09-30T06:05:20.336Z,6.87
2018-09-30T06:06:20.226Z,6.89
2018-09-30T06:07:20.218Z,6.93
2018-09-30T06:08:20.492Z,7.03
2018-09-30T06:09:20.677Z,7
2018-09-30T06:10:20.511Z,7.03
2018-09-30T06:11:20.444Z,6.88
2018-09-30T06:12:20.445Z,6.93
2018-09-30T06:13:19.915Z,7
2018-09-30T06:14:21.215Z,7.13
2018-09-30T06:15:20.512Z,7.1
2018-09-30T06:16:20.420Z,7.14
2018-09-30T06:17:20.170Z,7.18
2018-09-30T06:18:20.392Z,7.21
2018-09-30T06:19:20.392Z,7.29
2018-09-30T06:20:20.160Z,7.2
2018-09-30T06:21:19.871Z,7.21
2018-09-30T06:22:20.362Z,7.21
2018-09-30T06:23:20.101Z,7.29
2018-09-30T06:24:20.500Z,7.32
2018-09-30T06:25:20.423Z,7.32
2018-09-30T06:26:20.077Z,7.45
2018-09-30T06:27:19.816Z,7.45
2018-09-30T06:28:20.081Z,7.51
2018-09-30T06:29:20.076Z,7.57
2018-09-30T06:30:20.529Z,7.57
2018-09-30T06:31:20.041Z,7.61
2018-09-30T06:32:20.054Z,7.69
2018-09-30T06:33:20.307Z,7.72
2018-09-30T06:34:20.365Z,7.85
2018-09-30T06:35:20.054Z,7.93
2018-09-30T06:36:19.754Z,7.9
2018-09-30T06:37:20.473Z,7.95
2018-09-30T06:38:19.993Z,7.9
2018-09-30T06:39:20.266Z,7.9
2018-09-30T06:40:20.388Z,7.82
2018-09-30T06:41:20.248Z,7.91
2018-09-30T06:42:20.245Z,7.94
2018-09-30T06:43:20.235Z,7.93
2018-09-30T06:44:20.218Z,7.94
2018-09-30T06:45:20.369Z,7.98
2018-09-30T06:46:19.958Z,8
2018-09-30T06:47:20.198Z,8.06
2018-09-30T06:48:20.187Z,8.01
2018-09-30T06:49:19.932Z,8.06
2018-09-30T06:50:20.259Z,8.19
2018-09-30T06:51:20.164Z,8.16
2018-09-30T06:52:19.659Z,8.23
2018-09-30T06:53:19.905Z,8.27
2018-09-30T06:54:20.153Z,8.28
2018-09-30T06:55:19.913Z,8.3
2018-09-30T06:56:19.898Z,8.33
2018-09-30T06:57:19.628Z,8.48
2018-09-30T06:58:19.861Z,8.56
2018-09-30T06:59:19.602Z,8.64
2018-09-30T07:00:20.160Z,8.61
2018-09-30T07:01:20.118Z,8.87
2018-09-30T07:02:19.846Z,8.89
2018-09-30T07:03:20.096Z,8.97
2018-09-30T07:04:19.579Z,9.32
2018-09-30T07:05:19.920Z,9.73
2018-09-30T07:06:19.816Z,10.35
2018-09-30T07:07:19.817Z,11.08
2018-09-30T07:08:19.820Z,11.78
2018-09-30T07:09:19.888Z,12.24
2018-09-30T07:10:19.851Z,12.85
2018-09-30T07:11:20.072Z,13.44
2018-09-30T07:12:20.073Z,13.89
2018-09-30T07:13:20.072Z,14.35
2018-09-30T07:14:19.539Z,14.53
2018-09-30T07:15:20.132Z,14.92
2018-09-30T07:16:19.535Z,14.92
2018-09-30T07:17:20.045Z,15.04
2018-09-30T07:18:19.790Z,15.27
2018-09-30T07:19:20.044Z,15.39
2018-09-30T07:20:19.562Z,15.52
2018-09-30T07:21:19.523Z,15.73
2018-09-30T07:22:20.238Z,15.76
2018-09-30T07:23:20.051Z,15.82
2018-09-30T07:24:19.787Z,16
2018-09-30T07:25:20.069Z,16.09
2018-09-30T07:26:19.797Z,16.05
2018-09-30T07:27:19.804Z,16.08
2018-09-30T07:28:19.784Z,16.16
2018-09-30T07:29:20.050Z,16.28
2018-09-30T07:30:20.054Z,16.31
2018-09-30T07:31:19.564Z,16.32
2018-09-30T07:32:19.798Z,16.46
2018-09-30T07:33:19.795Z,16.47
2018-09-30T07:34:19.798Z,16.68
2018-09-30T07:35:20.130Z,16.79
2018-09-30T07:36:19.804Z,16.93
2018-09-30T07:37:19.802Z,16.91
2018-09-30T07:38:19.796Z,17.11
2018-09-30T07:39:20.164Z,17.15
2018-09-30T07:40:19.829Z,17.15
2018-09-30T07:41:19.541Z,17.27
2018-09-30T07:42:20.078Z,17.26
2018-09-30T07:43:19.801Z,17.38
2018-09-30T07:44:20.068Z,17.56
2018-09-30T07:45:19.917Z,17.63
2018-09-30T07:46:20.085Z,17.8
2018-09-30T07:47:19.838Z,17.79
2018-09-30T07:48:19.821Z,17.82
2018-09-30T07:49:20.080Z,18.04
2018-09-30T07:50:19.639Z,18.05
2018-09-30T07:51:20.084Z,18.07
2018-09-30T07:52:20.169Z,17.87
2018-09-30T07:53:20.083Z,17.79
2018-09-30T07:54:20.096Z,17.72
2018-09-30T07:55:19.843Z,17.95
2018-09-30T07:56:20.096Z,18.08
2018-09-30T07:57:19.842Z,18.22
2018-09-30T07:58:19.578Z,18.25
2018-09-30T07:59:19.842Z,18.08
2018-09-30T08:00:20.195Z,18.07
2018-09-30T08:01:19.863Z,18.16
2018-09-30T08:02:19.839Z,18.2
2018-09-30T08:03:19.847Z,18.05
2018-09-30T08:04:19.855Z,17.63
2018-09-30T08:05:19.949Z,16.99
2018-09-30T08:06:20.269Z,16.31
2018-09-30T08:07:20.137Z,15.57
2018-09-30T08:08:19.850Z,14.94
2018-09-30T08:09:20.130Z,14.47
2018-09-30T08:10:20.207Z,14.05
2018-09-30T08:11:20.152Z,13.77
2018-09-30T08:12:20.137Z,13.53
2018-09-30T08:13:20.245Z,13.25
2018-09-30T08:14:19.876Z,13.11
2018-09-30T08:15:20.197Z,13.01
2018-09-30T08:16:19.998Z,12.98
2018-09-30T08:17:19.874Z,12.82
2018-09-30T08:18:19.872Z,12.72
2018-09-30T08:19:20.141Z,12.68
2018-09-30T08:20:19.686Z,12.76
2018-09-30T08:21:19.881Z,12.67
2018-09-30T08:22:20.145Z,12.7
2018-09-30T08:23:20.169Z,12.68
2018-09-30T08:24:20.750Z,12.72
2018-09-30T08:25:19.931Z,12.65
2018-09-30T08:26:20.146Z,12.72
2018-09-30T08:27:20.145Z,12.72
2018-09-30T08:28:20.149Z,12.7
2018-09-30T08:29:19.602Z,12.73
2018-09-30T08:30:20.166Z,12.76
2018-09-30T08:31:20.120Z,12.75
2018-09-30T08:32:20.155Z,12.72
2018-09-30T08:33:20.115Z,12.73
2018-09-30T08:34:19.845Z,12.75
2018-09-30T08:35:20.123Z,12.79
2018-09-30T08:36:19.857Z,12.85
2018-09-30T08:37:20.098Z,13
2018-09-30T08:38:19.849Z,13.01
2018-09-30T08:39:20.104Z,13.22
2018-09-30T08:40:20.143Z,13.19
2018-09-30T08:41:20.091Z,13.3
2018-09-30T08:42:19.846Z,13.33
2018-09-30T08:43:20.109Z,13.37
2018-09-30T08:44:20.504Z,13.5
2018-09-30T08:45:19.836Z,13.54
2018-09-30T08:46:19.836Z,13.52
2018-09-30T08:47:19.997Z,13.54
2018-09-30T08:48:19.832Z,13.6
2018-09-30T08:49:19.989Z,13.59
2018-09-30T08:50:19.871Z,13.62
2018-09-30T08:51:19.818Z,13.67
2018-09-30T08:52:20.065Z,13.75
2018-09-30T08:53:20.055Z,13.79
2018-09-30T08:54:20.079Z,13.86
2018-09-30T08:55:19.889Z,13.89
2018-09-30T08:56:20.238Z,13.96
2018-09-30T08:57:19.833Z,13.92
2018-09-30T08:58:19.818Z,13.93
2018-09-30T08:59:19.558Z,14
2018-09-30T09:00:19.875Z,14
2018-09-30T09:01:20.061Z,13.97
2018-09-30T09:02:19.815Z,14.05
2018-09-30T09:03:19.814Z,14.08
2018-09-30T09:04:20.094Z,14.12
2018-09-30T09:05:19.804Z,14.14
2018-09-30T09:06:19.802Z,14.22
2018-09-30T09:07:19.796Z,14.18
2018-09-30T09:08:19.793Z,14.3
2018-09-30T09:09:19.798Z,14.41
2018-09-30T09:10:20.136Z,14.35
2018-09-30T09:11:19.806Z,14.4
2018-09-30T09:12:20.047Z,14.41
2018-09-30T09:13:19.790Z,14.53
2018-09-30T09:14:20.040Z,14.51
2018-09-30T09:15:19.637Z,14.45
2018-09-30T09:16:19.543Z,14.54
2018-09-30T09:17:19.776Z,14.59
2018-09-30T09:18:19.777Z,14.68
2018-09-30T09:19:20.029Z,14.65
2018-09-30T09:20:20.085Z,14.77
2018-09-30T09:21:19.512Z,14.86
2018-09-30T09:22:21.449Z,14.86
2018-09-30T09:23:20.027Z,14.91
2018-09-30T09:24:20.019Z,14.97
2018-09-30T09:25:20.078Z,14.97
2018-09-30T09:26:20.026Z,14.97
2018-09-30T09:27:20.025Z,14.96
2018-09-30T09:28:19.781Z,15
2018-09-30T09:29:19.775Z,14.86
2018-09-30T09:30:19.860Z,14.85
2018-09-30T09:31:20.027Z,14.89
2018-09-30T09:32:19.768Z,14.84
2018-09-30T09:33:19.507Z,14.78
2018-09-30T09:34:20.023Z,14.89
2018-09-30T09:35:19.839Z,14.82
2018-09-30T09:36:20.015Z,14.84
2018-09-30T09:37:20.018Z,14.86
2018-09-30T09:38:20.172Z,14.88
2018-09-30T09:39:20.017Z,14.89
2018-09-30T09:40:20.119Z,14.85
2018-09-30T09:41:20.022Z,14.88
2018-09-30T09:42:20.005Z,14.99
2018-09-30T09:43:19.742Z,15
2018-09-30T09:44:19.739Z,15.02
2018-09-30T09:45:20.104Z,15.21
2018-09-30T09:46:19.753Z,15.31
2018-09-30T09:47:19.497Z,15.29
2018-09-30T09:48:20.005Z,15.44
2018-09-30T09:49:19.801Z,15.44
2018-09-30T09:50:19.829Z,15.54
2018-09-30T09:51:19.763Z,15.62
2018-09-30T09:52:24.627Z,15.7
2018-09-30T09:53:19.753Z,15.72
2018-09-30T09:54:19.985Z,15.65
2018-09-30T09:55:19.799Z,15.7
2018-09-30T09:56:19.750Z,15.76
2018-09-30T09:57:19.736Z,15.73
2018-09-30T09:58:19.978Z,15.82
2018-09-30T09:59:20.093Z,15.83
2018-09-30T10:00:20.063Z,15.91
2018-09-30T10:01:19.741Z,15.9
2018-09-30T10:02:19.740Z,16.04
2018-09-30T10:03:19.986Z,16.21
2018-09-30T10:04:19.744Z,16.15
2018-09-30T10:05:19.896Z,16.17
2018-09-30T10:06:19.746Z,16.21
2018-09-30T10:07:19.716Z,16.31
2018-09-30T10:08:20.221Z,16.31
2018-09-30T10:09:19.993Z,16.36
2018-09-30T10:10:19.490Z,16.49
2018-09-30T10:11:19.459Z,16.56
2018-09-30T10:12:19.975Z,16.58
2018-09-30T10:13:20.067Z,16.69
2018-09-30T10:14:19.971Z,16.75
2018-09-30T10:15:20.048Z,16.78
2018-09-30T10:16:19.710Z,16.83
2018-09-30T10:17:19.710Z,16.9
2018-09-30T10:18:19.730Z,16.86
2018-09-30T10:19:19.777Z,16.81
2018-09-30T10:20:20.072Z,16.89
2018-09-30T10:21:19.467Z,16.9
2018-09-30T10:22:19.466Z,16.96
2018-09-30T10:23:21.311Z,17.02
2018-09-30T10:24:19.713Z,17.05
2018-09-30T10:25:20.003Z,17.05
2018-09-30T10:26:19.444Z,17.06
2018-09-30T10:27:19.457Z,17.04
2018-09-30T10:28:19.955Z,17.02
2018-09-30T10:29:19.714Z,17.09
2018-09-30T10:30:19.755Z,17.04
2018-09-30T10:31:19.715Z,17.15
2018-09-30T10:32:19.712Z,17.19
2018-09-30T10:33:19.703Z,17.3
2018-09-30T10:34:19.724Z,17.34
2018-09-30T10:35:19.489Z,17.51
2018-09-30T10:36:19.713Z,17.48
2018-09-30T10:37:19.709Z,17.57
2018-09-30T10:38:19.793Z,17.6
2018-09-30T10:39:20.684Z,17.65
2018-09-30T10:40:19.973Z,17.56
2018-09-30T10:41:19.955Z,17.56
2018-09-30T10:42:19.451Z,17.56
2018-09-30T10:43:19.970Z,17.65
2018-09-30T10:44:19.454Z,17.72
2018-09-30T10:45:19.756Z,17.71
2018-09-30T10:46:19.725Z,17.71
2018-09-30T10:47:20.000Z,17.8
2018-09-30T10:48:19.799Z,17.86
2018-09-30T10:49:19.718Z,17.95
2018-09-30T10:50:19.807Z,17.86
2018-09-30T10:51:19.734Z,17.85
2018-09-30T10:52:19.704Z,17.8
2018-09-30T10:53:20.931Z,17.76
2018-09-30T10:54:19.971Z,17.76
2018-09-30T10:55:20.245Z,17.76
2018-09-30T10:56:19.711Z,17.78
2018-09-30T10:57:19.752Z,17.95
2018-09-30T10:58:19.456Z,17.87
2018-09-30T10:59:19.976Z,18.05
2018-09-30T11:00:19.770Z,18.03
2018-09-30T11:01:19.453Z,18.05
2018-09-30T11:02:19.742Z,18.01
2018-09-30T11:03:20.085Z,18.18
2018-09-30T11:04:19.967Z,18.18
2018-09-30T11:05:20.089Z,18.25
2018-09-30T11:06:19.719Z,18.26
2018-09-30T11:07:19.737Z,18.23
2018-09-30T11:08:19.731Z,18.13
2018-09-30T11:09:19.734Z,18.2
2018-09-30T11:10:20.191Z,18.22
2018-09-30T11:11:19.733Z,18.16
2018-09-30T11:12:19.461Z,18.11
2018-09-30T11:13:19.972Z,18.23
2018-09-30T11:14:19.985Z,18.28
2018-09-30T11:15:19.762Z,18.34
2018-09-30T11:16:19.747Z,18.53
2018-09-30T11:17:19.728Z,18.58
2018-09-30T11:18:19.982Z,18.47
2018-09-30T11:19:19.979Z,18.44
2018-09-30T11:20:19.537Z,18.33
2018-09-30T11:21:19.732Z,18.34
2018-09-30T11:22:20.062Z,18.28
2018-09-30T11:23:19.740Z,18.2
2018-09-30T11:24:19.730Z,18.16
2018-09-30T11:25:19.739Z,18.08
2018-09-30T11:26:19.473Z,18.04
2018-09-30T11:27:19.998Z,17.97
2018-09-30T11:28:19.855Z,17.95
2018-09-30T11:29:19.469Z,17.97
2018-09-30T11:30:19.846Z,18.03
2018-09-30T11:31:19.745Z,18.1
2018-09-30T11:32:19.984Z,18.07
2018-09-30T11:33:19.985Z,18
2018-09-30T11:34:19.785Z,18.05
2018-09-30T11:35:19.851Z,17.95
2018-09-30T11:36:20.001Z,18.04
2018-09-30T11:37:19.738Z,18.18
2018-09-30T11:38:19.752Z,18.18
2018-09-30T11:39:19.984Z,18.25
2018-09-30T11:40:19.826Z,18.33
2018-09-30T11:41:20.003Z,18.33
2018-09-30T11:42:20.006Z,18.25
2018-09-30T11:43:19.759Z,18.34
2018-09-30T11:44:20.008Z,18.49
2018-09-30T11:45:19.569Z,18.44
2018-09-30T11:46:19.482Z,18.44
2018-09-30T11:47:19.995Z,18.59
2018-09-30T11:48:19.735Z,18.55
2018-09-30T11:49:19.999Z,18.6
2018-09-30T11:50:20.000Z,18.58
2018-09-30T11:51:19.997Z,18.62
2018-09-30T11:52:20.012Z,18.62
2018-09-30T11:53:20.836Z,18.71
2018-09-30T11:54:19.748Z,18.83
2018-09-30T11:55:20.106Z,18.84
2018-09-30T11:56:19.754Z,18.84
2018-09-30T11:57:20.007Z,18.78
2018-09-30T11:58:19.756Z,18.89
2018-09-30T11:59:19.757Z,18.93
2018-09-30T12:00:19.812Z,19
2018-09-30T12:01:19.994Z,19.07
2018-09-30T12:02:20.218Z,19.12
2018-09-30T12:03:20.028Z,19.11
2018-09-30T12:04:19.538Z,19.15
2018-09-30T12:05:19.554Z,19.18
2018-09-30T12:06:19.800Z,19.29
2018-09-30T12:07:20.002Z,19.21
2018-09-30T12:08:20.018Z,19.27
2018-09-30T12:09:20.022Z,19.19
2018-09-30T12:10:20.121Z,19.19
2018-09-30T12:11:19.772Z,19.19
2018-09-30T12:12:19.778Z,19.24
2018-09-30T12:13:19.763Z,19.31
2018-09-30T12:14:20.023Z,19.27
2018-09-30T12:15:19.880Z,19.36
2018-09-30T12:16:19.767Z,19.31
2018-09-30T12:17:19.527Z,19.4
2018-09-30T12:18:19.787Z,19.41
2018-09-30T12:19:19.767Z,19.54
2018-09-30T12:20:19.844Z,19.51
2018-09-30T12:21:20.023Z,19.62
2018-09-30T12:22:19.781Z,19.63
2018-09-30T12:23:19.773Z,19.59
2018-09-30T12:24:20.047Z,19.62
2018-09-30T12:25:19.873Z,19.63
2018-09-30T12:26:20.031Z,19.63
2018-09-30T12:27:19.781Z,19.67
2018-09-30T12:28:19.773Z,19.62
2018-09-30T12:29:19.788Z,19.74
2018-09-30T12:30:19.851Z,19.73
2018-09-30T12:31:20.041Z,19.71
2018-09-30T12:32:19.765Z,19.82
2018-09-30T12:33:20.035Z,19.77
2018-09-30T12:34:20.040Z,19.77
2018-09-30T12:35:19.580Z,19.82
2018-09-30T12:36:19.514Z,19.77
2018-09-30T12:37:19.783Z,19.76
2018-09-30T12:38:20.048Z,19.69
2018-09-30T12:39:19.921Z,19.81
2018-09-30T12:40:20.100Z,19.76
2018-09-30T12:41:19.789Z,19.71
2018-09-30T12:42:19.815Z,19.73
2018-09-30T12:43:19.793Z,19.81
2018-09-30T12:44:19.810Z,19.73
2018-09-30T12:45:19.879Z,19.86
2018-09-30T12:46:19.531Z,19.79
2018-09-30T12:47:20.047Z,19.95
2018-09-30T12:48:20.043Z,20.02
2018-09-30T12:49:19.807Z,19.94
2018-09-30T12:50:20.056Z,19.99
2018-09-30T12:51:19.801Z,19.88
2018-09-30T12:52:19.534Z,19.84
2018-09-30T12:53:19.802Z,19.84
2018-09-30T12:54:19.532Z,19.66
2018-09-30T12:55:19.898Z,19.73
2018-09-30T12:56:19.831Z,19.69
2018-09-30T12:57:20.068Z,19.7
2018-09-30T12:58:20.098Z,19.64
2018-09-30T12:59:19.820Z,19.64
2018-09-30T13:00:19.911Z,19.69
2018-09-30T13:01:19.820Z,19.73
2018-09-30T13:02:19.815Z,19.76
2018-09-30T13:03:19.824Z,19.77
2018-09-30T13:04:19.811Z,19.81
2018-09-30T13:05:20.145Z,19.99
2018-09-30T13:06:19.545Z,20.09
2018-09-30T13:07:19.827Z,20.13
2018-09-30T13:08:20.087Z,20.26
2018-09-30T13:09:19.557Z,20.16